Akpaka Airport

Jump to: basic info | weather | comments

Related pages: nearby airports | nearby navaids | notams | map

Basic information (top)

Codes: DXAK
Location: lon 7.583000, lat 1.117000, elev 689 ft / 210 m msl
Status: small_airport
Scheduled airline service: no
Links: Wikipedia Mobile

Weather (top)

Current conditions (rec'd 2013/03/27 12:00Z):

DXAK 271200Z 00000KT 9999 FEW016 BKN260 31/23 Q1010

Airport forecast for Lomé-Tokoin Airport 85nm (158km) S (rec'd 2015/03/01 00:33Z):

TAF DXXX 012300Z 0200/0306 22010KT 9999 SCT012 
      BECMG 0202/0204 26005KT PROB30 
      TEMPO 0204/0208 4000 BR 
      BECMG 0208/0211 20010KT 
      TEMPO 0214/0219 TS FEW015 FEW020CB 
      BECMG 0222/0224 26005KT

Latest comments (top)

man: my name is solomon akpaka .hi [read]

A visit will be good: I would like to visit Togo on vacation ... [read]

More... (top)

See also NOTAMs and nearby airports and navaids, or visit the Akpaka Airport page at the main OurAirports website..